Algernon, Nebraska
Current Conditions -  °F | °C
As of 2:53 PM on Sunday 23 Nov 2014 (Local Time) from KBBW Reporting Station
Clear Clear  
Wind Chill:   Ceiling: Unl
Heat Index:   Visibility: 10mi
Dew Point: -7°   Wind: 32mph
Humidity: 31%   Direction: 330°NNW
Pressure: 29.59"   Gusts: 46mph
Location:  41.1632°N, 99.3112°W
Report Text: KBBW 232053Z AUTO 33028G40KT 10SM CLR 09/M07 A2959 RMK AO2 PK WND 34040/2049 SLP016 T00941072 56016 PWINO $
Loading
Personal Weather Stations






























Interactive Weather Map New forecast layout! Learn more

10-Day Weather Forecast

Advertisements
Track Severe Weather on mobile